createdAt,value
2022-10-25T00:02:05.292Z,989.49
2022-10-25T00:12:13.339Z,989.62
2022-10-25T00:17:17.489Z,989.68
2022-10-25T00:22:21.707Z,989.79
2022-10-25T00:27:25.818Z,989.86
2022-10-25T00:32:28.112Z,989.99
2022-10-25T00:37:32.328Z,989.95
2022-10-25T00:42:36.459Z,989.93
2022-10-25T00:47:40.590Z,989.86
2022-10-25T00:52:44.710Z,989.98
2022-10-25T00:57:49.337Z,990.11
2022-10-25T01:02:53.207Z,990.11
2022-10-25T01:07:57.231Z,990.22
2022-10-25T01:13:01.444Z,990.24
2022-10-25T01:18:05.553Z,990.24
2022-10-25T01:23:09.717Z,990.25
2022-10-25T01:28:13.841Z,990.32
2022-10-25T01:33:18.025Z,990.45
2022-10-25T01:38:22.159Z,990.46
2022-10-25T01:43:26.378Z,990.53
2022-10-25T01:48:30.532Z,990.53
2022-10-25T01:53:32.771Z,990.44
2022-10-25T01:58:36.941Z,990.56
2022-10-25T02:03:39.234Z,990.54
2022-10-25T02:08:43.384Z,990.63
2022-10-25T02:13:47.529Z,990.66
2022-10-25T02:18:51.737Z,990.70
2022-10-25T02:23:55.860Z,990.76
2022-10-25T02:28:59.987Z,990.79
2022-10-25T02:34:04.218Z,990.77
2022-10-25T02:39:08.326Z,990.80
2022-10-25T02:49:16.627Z,990.92
2022-10-25T02:54:20.801Z,990.87
2022-10-25T02:59:24.951Z,990.96
2022-10-25T03:04:29.129Z,990.97
2022-10-25T03:09:33.277Z,991.08
2022-10-25T03:14:37.467Z,991.13
2022-10-25T03:19:41.629Z,991.08
2022-10-25T03:24:45.761Z,991.16
2022-10-25T03:29:49.954Z,991.28
2022-10-25T03:34:54.089Z,991.32
2022-10-25T03:40:00.278Z,991.29
2022-10-25T03:45:02.412Z,991.26
2022-10-25T03:50:06.544Z,991.24
2022-10-25T03:55:08.855Z,991.36
2022-10-25T04:00:13.012Z,991.42
2022-10-25T04:05:15.269Z,991.42
2022-10-25T04:10:19.432Z,991.52
2022-10-25T04:15:23.592Z,991.67
2022-10-25T04:20:27.748Z,991.64
2022-10-25T04:25:31.886Z,991.71
2022-10-25T04:30:38.757Z,991.74
2022-10-25T04:35:40.277Z,991.71
2022-10-25T04:40:44.412Z,991.76
2022-10-25T04:45:48.525Z,991.81
2022-10-25T04:50:52.695Z,991.91
2022-10-25T04:55:56.909Z,991.82
2022-10-25T05:01:01.167Z,991.87
2022-10-25T05:06:05.181Z,991.92
2022-10-25T05:11:09.359Z,991.91
2022-10-25T05:16:13.532Z,991.99
2022-10-25T05:21:17.753Z,992.06
2022-10-25T05:26:21.811Z,991.99
2022-10-25T05:31:25.968Z,991.99
2022-10-25T05:36:30.174Z,992.16
2022-10-25T05:41:36.298Z,992.18
2022-10-25T05:46:38.487Z,992.22
2022-10-25T05:51:40.742Z,992.43
2022-10-25T05:56:44.907Z,992.35
2022-10-25T06:01:47.393Z,992.53
2022-10-25T06:06:51.363Z,992.59
2022-10-25T06:11:53.576Z,992.67
2022-10-25T06:16:57.801Z,992.77
2022-10-25T06:22:01.912Z,992.77
2022-10-25T06:27:06.092Z,992.73
2022-10-25T06:32:10.247Z,993.01
2022-10-25T06:37:14.416Z,993.04
2022-10-25T06:42:18.582Z,993.11
2022-10-25T06:47:22.721Z,993.23
2022-10-25T06:52:26.906Z,993.25
2022-10-25T06:57:31.052Z,993.18
2022-10-25T07:02:35.184Z,993.28
2022-10-25T07:07:39.375Z,993.35
2022-10-25T07:12:43.548Z,993.52
2022-10-25T07:17:47.899Z,993.57
2022-10-25T07:22:55.470Z,993.61
2022-10-25T07:27:56.005Z,993.63
2022-10-25T07:33:00.151Z,993.68
2022-10-25T07:38:04.358Z,993.78
2022-10-25T07:43:08.474Z,993.77
2022-10-25T07:48:12.685Z,993.74
2022-10-25T07:53:16.799Z,993.77
2022-10-25T07:58:19.081Z,993.75
2022-10-25T08:03:23.255Z,993.82
2022-10-25T08:08:27.377Z,993.91
2022-10-25T08:13:31.568Z,993.94
2022-10-25T08:18:35.762Z,993.90
2022-10-25T08:23:39.869Z,993.83
2022-10-25T08:28:44.060Z,993.86
2022-10-25T08:33:48.185Z,993.89
2022-10-25T08:38:52.352Z,993.89
2022-10-25T08:43:56.568Z,994.01
2022-10-25T08:49:00.662Z,993.95
2022-10-25T08:54:04.850Z,993.97
2022-10-25T08:59:09.014Z,994.10
2022-10-25T09:04:13.138Z,994.14
2022-10-25T09:09:17.312Z,994.06
2022-10-25T09:14:21.494Z,994.13
2022-10-25T09:19:25.674Z,994.19
2022-10-25T09:24:29.808Z,994.27
2022-10-25T09:29:33.972Z,994.26
2022-10-25T09:34:38.108Z,994.37
2022-10-25T09:39:42.294Z,994.36
2022-10-25T09:44:44.549Z,994.52
2022-10-25T09:49:48.707Z,994.56
2022-10-25T09:54:50.998Z,994.66
2022-10-25T09:59:55.168Z,994.74
2022-10-25T10:04:59.293Z,994.83
2022-10-25T10:10:03.490Z,994.88
2022-10-25T10:15:07.635Z,994.92
2022-10-25T10:20:11.772Z,995.08
2022-10-25T10:25:15.960Z,995.04
2022-10-25T10:30:20.090Z,995.23
2022-10-25T10:35:24.236Z,995.20
2022-10-25T10:45:32.553Z,995.09
2022-10-25T10:50:36.764Z,995.15
2022-10-25T10:55:40.893Z,995.10
2022-10-25T11:00:45.087Z,995.18
2022-10-25T11:10:53.392Z,995.23
2022-10-25T11:15:55.642Z,995.24
2022-10-25T11:21:06.828Z,995.05
2022-10-25T11:26:09.119Z,994.98
2022-10-25T11:31:20.262Z,995.02
2022-10-25T11:36:31.440Z,995.03
2022-10-25T11:41:42.592Z,995.03
2022-10-25T11:46:53.801Z,995.00
2022-10-25T11:52:04.964Z,994.91
2022-10-25T11:57:14.165Z,994.85
2022-10-25T12:02:18.401Z,994.91
2022-10-25T12:07:22.506Z,994.94
2022-10-25T12:12:26.673Z,994.90
2022-10-25T12:17:30.836Z,994.92
2022-10-25T12:22:35.008Z,994.90
2022-10-25T12:27:39.208Z,994.85
2022-10-25T12:32:43.271Z,994.75
2022-10-25T12:37:49.091Z,994.82
2022-10-25T12:42:51.601Z,994.78
2022-10-25T12:47:55.761Z,994.68
2022-10-25T12:52:59.912Z,994.75
2022-10-25T12:58:04.075Z,994.91
2022-10-25T13:03:10.066Z,994.96
2022-10-25T13:08:12.410Z,994.96
2022-10-25T13:13:16.575Z,995.07
2022-10-25T13:18:22.321Z,995.04
2022-10-25T13:23:24.881Z,995.01
2022-10-25T13:28:32.742Z,995.01
2022-10-25T13:33:33.250Z,994.92
2022-10-25T13:38:39.702Z,994.98
2022-10-25T13:43:39.653Z,995.03
2022-10-25T13:48:43.782Z,995.05
2022-10-25T13:53:47.932Z,995.06
2022-10-25T13:58:52.211Z,995.09
2022-10-25T14:03:56.294Z,995.08
2022-10-25T14:09:00.430Z,995.06
2022-10-25T14:14:04.577Z,994.95
2022-10-25T14:19:08.755Z,994.98
2022-10-25T14:24:12.907Z,994.97
2022-10-25T14:29:19.131Z,995.03
2022-10-25T14:34:21.220Z,995.07
2022-10-25T14:39:25.382Z,995.03
2022-10-25T14:44:29.522Z,995.07
2022-10-25T14:52:03.030Z,995.13
2022-10-25T14:57:07.188Z,994.99
2022-10-25T15:02:11.425Z,994.62
2022-10-25T15:07:15.553Z,994.25
2022-10-25T15:12:19.659Z,994.55
2022-10-25T15:17:23.831Z,994.80
2022-10-25T15:22:28.023Z,994.83
2022-10-25T15:27:32.173Z,994.89
2022-10-25T15:32:36.345Z,994.82
2022-10-25T15:37:40.499Z,994.98
2022-10-25T15:42:44.873Z,994.81
2022-10-25T15:47:48.790Z,994.84
2022-10-25T15:52:52.980Z,994.81
2022-10-25T15:57:57.136Z,995.01
2022-10-25T16:03:01.297Z,995.02
2022-10-25T16:08:05.451Z,995.09
2022-10-25T16:13:09.650Z,995.08
2022-10-25T16:18:13.858Z,995.15
2022-10-25T16:23:17.959Z,995.14
2022-10-25T16:28:20.227Z,995.33
2022-10-25T16:33:24.380Z,995.27
2022-10-25T16:38:26.620Z,995.20
2022-10-25T16:43:30.803Z,995.27
2022-10-25T16:48:34.926Z,995.14
2022-10-25T16:53:39.070Z,995.23
2022-10-25T16:58:43.263Z,995.31
2022-10-25T17:03:47.447Z,995.40
2022-10-25T17:08:51.575Z,995.41
2022-10-25T17:13:55.745Z,995.56
2022-10-25T17:18:59.923Z,995.74
2022-10-25T17:24:04.094Z,995.92
2022-10-25T17:29:08.256Z,996.00
2022-10-25T17:34:12.410Z,996.10
2022-10-25T17:39:16.612Z,995.98
2022-10-25T17:49:24.856Z,995.91
2022-10-25T17:54:29.014Z,995.89
2022-10-25T17:59:33.225Z,995.90
2022-10-25T18:04:53.280Z,995.84
2022-10-25T18:09:41.495Z,995.64
2022-10-25T18:14:45.697Z,995.71
2022-10-25T18:19:49.860Z,995.71
2022-10-25T18:24:53.981Z,995.53
2022-10-25T18:29:56.242Z,995.41
2022-10-25T18:35:00.501Z,995.41
2022-10-25T18:40:04.667Z,995.41
2022-10-25T18:45:08.814Z,995.30
2022-10-25T18:50:12.939Z,995.30
2022-10-25T19:00:21.301Z,995.32
2022-10-25T19:05:25.470Z,995.26
2022-10-25T19:10:29.590Z,995.19
2022-10-25T19:15:33.771Z,995.12
2022-10-25T19:20:37.914Z,995.10
2022-10-25T19:25:42.101Z,995.08
2022-10-25T19:30:46.252Z,995.09
2022-10-25T19:35:50.378Z,995.07
2022-10-25T19:40:54.585Z,995.05
2022-10-25T19:45:58.739Z,994.99
2022-10-25T19:51:02.854Z,994.87
2022-10-25T19:56:07.108Z,994.85
2022-10-25T20:01:11.314Z,994.76
2022-10-25T20:06:17.492Z,994.62
2022-10-25T20:11:19.518Z,994.61
2022-10-25T20:16:21.820Z,994.52
2022-10-25T20:21:25.957Z,994.45
2022-10-25T20:26:30.114Z,994.40
2022-10-25T20:31:34.304Z,994.35
2022-10-25T20:36:38.450Z,994.29
2022-10-25T20:41:42.629Z,994.22
2022-10-25T20:46:46.752Z,994.16
2022-10-25T20:51:50.919Z,994.05
2022-10-25T20:56:55.073Z,994.06
2022-10-25T21:01:59.466Z,993.99
2022-10-25T21:07:03.418Z,993.94
2022-10-25T21:12:07.551Z,993.77
2022-10-25T21:17:11.705Z,993.59
2022-10-25T21:22:15.923Z,993.58
2022-10-25T21:27:20.074Z,993.55
2022-10-25T21:32:24.199Z,993.41
2022-10-25T21:37:28.409Z,993.30
2022-10-25T21:42:32.547Z,993.26
2022-10-25T21:47:36.715Z,993.12
2022-10-25T21:52:40.871Z,993.10
2022-10-25T21:57:47.191Z,992.95
2022-10-25T22:02:47.325Z,992.84
2022-10-25T22:07:51.885Z,992.65
2022-10-25T22:12:53.719Z,992.74
2022-10-25T22:17:57.891Z,992.67
2022-10-25T22:23:02.064Z,992.73
2022-10-25T22:28:06.212Z,992.68
2022-10-25T22:33:10.373Z,992.68
2022-10-25T22:38:14.553Z,992.61
2022-10-25T22:43:18.681Z,992.65
2022-10-25T22:48:22.861Z,992.57
2022-10-25T22:53:27.205Z,992.57
2022-10-25T22:58:31.186Z,992.44
2022-10-25T23:03:35.457Z,992.46
2022-10-25T23:08:39.642Z,992.43
2022-10-25T23:13:43.630Z,992.47
2022-10-25T23:18:47.842Z,992.36
2022-10-25T23:23:51.980Z,992.32
2022-10-25T23:28:56.191Z,992.16
2022-10-25T23:34:00.336Z,992.01
2022-10-25T23:39:04.485Z,991.95
2022-10-25T23:44:08.649Z,991.82
2022-10-25T23:49:12.811Z,991.69
2022-10-25T23:54:16.970Z,991.67
2022-10-25T23:59:19.301Z,991.42
